Time;durP1;ratioP1;P1;durP2;ratioP2;P2;SDS_P1;SDS_P2;PMS_P1;PMS_P2;Temp;Humidity;BMP_temperature;BMP_pressure;BME280_temperature;BME280_humidity;BME280_pressure;Samples;Min_cycle;Max_cycle;Signal;HPM_P1;HPM_P2
2022/06/22 06:00:57;;;;;;;10.02;4.47;;;;;;;;;;6170016;23;20498;-81
2022/06/22 06:03:35;;;;;;;11.73;5.53;;;;;;;;;;6187237;23;20017;-82
2022/06/22 06:06:24;;;;;;;8.73;5.10;;;;;;;;;;6185452;23;20005;-84
2022/06/22 06:08:54;;;;;;;11.65;7.13;;;;;;;;;;6185007;23;20036;-82
2022/06/22 09:45:14;;;;;;;10.90;7.80;;;;;;;;;;6205309;23;20036;-81
2022/06/22 09:48:18;;;;;;;11.57;7.03;;;;;;;;;;6187434;23;20035;-82
2022/06/22 09:51:07;;;;;;;14.13;7.50;;;;;;;;;;6123191;23;20479;-82
2022/06/22 09:53:48;;;;;;;;;;;;;;;;;;6096963;23;20069;-82
2022/06/22 09:56:28;;;;;;;13.35;7.03;;;;;;;;;;6140911;23;19920;-84
2022/06/22 09:59:05;;;;;;;13.55;8.77;;;;;;;;;;6156000;23;20068;-83
2022/06/22 10:02:08;;;;;;;12.52;8.57;;;;;;;;;;6157472;23;20417;-83
2022/06/22 10:04:51;;;;;;;17.85;7.97;;;;;;;;;;6157663;23;20105;-84
2022/06/22 10:07:37;;;;;;;13.60;6.93;;;;;;;;;;6157543;23;20005;-83
2022/06/22 10:10:05;;;;;;;10.85;6.90;;;;;;;;;;6156001;23;20006;-84
2022/06/22 10:13:05;;;;;;;10.20;6.40;;;;;;;;;;6157345;23;20029;-84
2022/06/22 10:15:43;;;;;;;11.80;7.10;;;;;;;;;;6157373;23;19997;-85
2022/06/22 10:19:03;;;;;;;13.07;6.90;;;;;;;;;;6157372;23;20001;-85
2022/06/22 10:21:28;;;;;;;14.10;7.60;;;;;;;;;;6097248;23;20700;-84
2022/06/22 10:24:16;;;;;;;13.85;7.75;;;;;;;;;;6145446;23;20010;-84
2022/06/22 10:27:03;;;;;;;14.95;7.05;;;;;;;;;;6157512;23;20005;-86
2022/06/22 10:29:40;;;;;;;12.20;6.65;;;;;;;;;;6157526;23;20032;-87
2022/06/22 10:32:11;;;;;;;9.35;6.47;;;;;;;;;;6157297;23;20428;-84
2022/06/22 10:35:03;;;;;;;13.15;7.15;;;;;;;;;;6155940;23;20012;-86
2022/06/22 10:37:40;;;;;;;9.85;6.38;;;;;;;;;;6155588;23;20017;-88
2022/06/22 10:46:29;;;;;;;12.77;7.55;;;;;;;;;;6102357;23;20014;-86
2022/06/22 10:49:02;;;;;;;12.35;6.85;;;;;;;;;;6156663;23;20072;-86
2022/06/22 10:51:50;;;;;;;17.17;7.57;;;;;;;;;;6156750;23;20009;-86
2022/06/22 10:54:23;;;;;;;12.02;6.78;;;;;;;;;;6127800;23;20441;-86
2022/06/22 10:57:08;;;;;;;11.35;6.32;;;;;;;;;;6156843;23;20140;-86
2022/06/22 10:59:56;;;;;;;13.15;7.15;;;;;;;;;;6157046;23;20012;-85
2022/06/22 11:02:43;;;;;;;12.27;6.55;;;;;;;;;;6155199;23;20005;-85
2022/06/22 11:05:39;;;;;;;11.57;7.20;;;;;;;;;;6156604;23;20001;-82
2022/06/22 11:08:23;;;;;;;8.90;6.30;;;;;;;;;;6156577;23;20310;-82
2022/06/22 11:11:08;;;;;;;14.80;7.70;;;;;;;;;;6156701;23;20076;-81
2022/06/22 11:14:18;;;;;;;13.63;7.50;;;;;;;;;;6156767;23;20425;-81
2022/06/22 11:16:58;;;;;;;10.88;7.93;;;;;;;;;;6133470;23;20052;-81
2022/06/22 11:19:27;;;;;;;11.55;6.93;;;;;;;;;;6156729;23;20092;-81
2022/06/22 11:22:11;;;;;;;11.70;7.28;;;;;;;;;;6156665;23;20329;-81
2022/06/22 11:31:08;;;;;;;10.15;6.93;;;;;;;;;;6095348;23;20021;-81
2022/06/22 11:33:51;;;;;;;12.68;6.07;;;;;;;;;;6146495;23;20013;-82
2022/06/22 11:36:53;;;;;;;10.02;6.13;;;;;;;;;;6156687;23;19997;-82
2022/06/22 11:39:53;;;;;;;10.35;6.38;;;;;;;;;;6156741;23;20005;-83
2022/06/22 11:42:31;;;;;;;12.20;7.28;;;;;;;;;;6122418;23;20038;-82
2022/06/22 17:32:15;;;;;;;12.40;8.63;;;;;;;;;;6204145;23;20040;-84
2022/06/22 17:34:59;;;;;;;14.03;8.87;;;;;;;;;;6188370;23;20164;-83
2022/06/22 17:37:34;;;;;;;12.80;8.25;;;;;;;;;;6188255;23;20005;-83
2022/06/22 17:40:28;;;;;;;10.63;8.55;;;;;;;;;;6186254;23;20343;-84
2022/06/22 17:43:01;;;;;;;16.85;9.77;;;;;;;;;;6187894;23;20332;-83
2022/06/22 17:45:42;;;;;;;15.10;10.10;;;;;;;;;;6188274;23;20001;-86
2022/06/22 17:48:21;;;;;;;14.45;9.57;;;;;;;;;;6186350;23;20005;-85
2022/06/22 17:50:51;;;;;;;12.73;9.02;;;;;;;;;;6188623;23;20005;-89
2022/06/22 17:53:31;;;;;;;13.43;8.68;;;;;;;;;;6188436;23;20024;-89
2022/06/22 17:56:02;;;;;;;12.68;9.57;;;;;;;;;;6188646;23;20494;-86
2022/06/22 17:58:35;;;;;;;12.40;8.80;;;;;;;;;;6188319;23;19997;-86
2022/06/22 18:01:01;;;;;;;11.80;9.35;;;;;;;;;;6188374;23;19997;-87
2022/06/22 18:03:45;;;;;;;13.23;9.68;;;;;;;;;;6188701;23;20050;-94
2022/06/22 18:06:21;;;;;;;12.10;9.02;;;;;;;;;;6189357;23;20025;-87
2022/06/22 18:09:13;;;;;;;13.85;8.95;;;;;;;;;;6187749;23;20080;-82
2022/06/22 18:11:41;;;;;;;15.05;9.75;;;;;;;;;;6187773;23;20036;-86
2022/06/22 18:14:18;;;;;;;16.17;9.38;;;;;;;;;;6185815;23;20088;-86
2022/06/22 18:16:58;;;;;;;12.30;8.93;;;;;;;;;;6188084;23;20310;-88
2022/06/22 18:19:32;;;;;;;14.15;9.45;;;;;;;;;;6187527;23;20005;-82
2022/06/22 18:22:01;;;;;;;11.82;8.82;;;;;;;;;;6187669;23;20062;-89
2022/06/22 18:24:33;;;;;;;11.82;8.93;;;;;;;;;;6187421;23;20440;-82
2022/06/22 18:26:59;;;;;;;12.57;9.05;;;;;;;;;;6189888;23;20027;-86
2022/06/22 18:29:37;;;;;;;14.52;8.93;;;;;;;;;;6202800;23;20005;-82
2022/06/22 18:32:11;;;;;;;16.40;9.30;;;;;;;;;;6206139;23;20895;-84
2022/06/22 18:34:48;;;;;;;10.65;7.78;;;;;;;;;;6186345;23;20372;-84
2022/06/22 18:37:43;;;;;;;9.98;7.65;;;;;;;;;;6187260;23;20004;-84
2022/06/22 18:43:13;;;;;;;14.43;8.02;;;;;;;;;;6187179;23;20047;-84
2022/06/22 18:45:53;;;;;;;11.40;9.07;;;;;;;;;;6187049;23;20080;-85
2022/06/22 18:48:25;;;;;;;13.07;8.50;;;;;;;;;;6186899;23;20428;-87
2022/06/22 18:51:07;;;;;;;10.80;8.70;;;;;;;;;;6187502;23;20128;-86
2022/06/22 18:53:39;;;;;;;12.65;8.68;;;;;;;;;;6186943;23;20048;-85
2022/06/22 18:56:22;;;;;;;12.98;9.02;;;;;;;;;;6187058;23;20009;-84
2022/06/22 18:58:59;;;;;;;12.50;8.05;;;;;;;;;;6186477;23;19993;-86
2022/06/22 19:01:53;;;;;;;12.10;7.82;;;;;;;;;;6186896;23;20005;-86
2022/06/22 19:04:29;;;;;;;11.27;8.38;;;;;;;;;;6184366;23;20020;-88
2022/06/22 19:07:07;;;;;;;13.52;8.38;;;;;;;;;;6187474;23;20012;-86
2022/06/22 19:09:46;;;;;;;14.63;8.45;;;;;;;;;;6186611;23;20329;-87
2022/06/22 19:12:43;;;;;;;13.90;8.75;;;;;;;;;;6187679;23;20012;-90
2022/06/22 19:15:37;;;;;;;12.82;8.70;;;;;;;;;;6185364;23;20036;-86
2022/06/22 19:18:20;;;;;;;11.55;7.78;;;;;;;;;;6186533;23;20009;-87
2022/06/22 19:21:34;;;;;;;11.30;8.55;;;;;;;;;;6184939;23;20011;-87
2022/06/22 19:24:22;;;;;;;13.38;8.48;;;;;;;;;;6100425;23;20093;-87
2022/06/22 19:26:59;;;;;;;17.83;8.80;;;;;;;;;;6083226;23;20447;-87
2022/06/22 19:29:41;;;;;;;8.95;8.15;;;;;;;;;;6126695;23;20009;-90
2022/06/22 19:32:29;;;;;;;11.07;9.00;;;;;;;;;;6123247;23;20055;-83
2022/06/22 19:35:07;;;;;;;10.65;8.30;;;;;;;;;;6124581;23;20081;-84
2022/06/22 19:37:40;;;;;;;13.07;8.63;;;;;;;;;;6124502;23;20527;-83
2022/06/22 19:40:32;;;;;;;11.75;8.23;;;;;;;;;;6099996;23;20005;-84
2022/06/22 19:42:58;;;;;;;15.77;8.10;;;;;;;;;;6124677;23;20034;-84
2022/06/22 19:45:57;;;;;;;12.63;8.45;;;;;;;;;;6124681;23;20012;-83
2022/06/22 19:48:29;;;;;;;10.50;8.18;;;;;;;;;;6124273;23;20037;-84
2022/06/22 19:51:23;;;;;;;13.25;8.45;;;;;;;;;;6124370;23;20009;-83
2022/06/22 19:54:13;;;;;;;10.20;9.10;;;;;;;;;;6130979;23;20013;-84
2022/06/22 19:56:44;;;;;;;9.73;8.25;;;;;;;;;;6185734;23;20059;-83
2022/06/22 19:59:12;;;;;;;11.68;8.80;;;;;;;;;;6185760;23;20007;-84
2022/06/22 20:01:48;;;;;;;9.82;8.90;;;;;;;;;;6185938;23;20001;-84
2022/06/22 20:04:20;;;;;;;11.32;8.70;;;;;;;;;;6185799;23;20017;-84
2022/06/22 20:07:05;;;;;;;10.93;8.07;;;;;;;;;;6185727;23;20063;-84
2022/06/22 20:09:36;;;;;;;12.25;8.20;;;;;;;;;;6184612;23;20436;-84
2022/06/22 20:12:35;;;;;;;13.55;9.27;;;;;;;;;;6184498;23;20125;-85
2022/06/22 20:15:11;;;;;;;15.18;9.55;;;;;;;;;;6186101;23;19997;-84
2022/06/22 20:17:46;;;;;;;13.75;9.30;;;;;;;;;;6185424;23;20012;-84
2022/06/22 20:20:14;;;;;;;12.73;8.20;;;;;;;;;;6185736;23;20425;-81
2022/06/22 20:22:51;;;;;;;12.75;8.23;;;;;;;;;;6185596;23;20005;-83
2022/06/22 20:25:38;;;;;;;14.93;8.30;;;;;;;;;;6185938;23;20032;-84
2022/06/22 20:28:21;;;;;;;10.25;8.27;;;;;;;;;;6185765;23;20029;-83
2022/06/22 20:31:04;;;;;;;11.88;8.27;;;;;;;;;;6186200;23;20036;-84
2022/06/22 20:33:36;;;;;;;8.85;7.95;;;;;;;;;;6185619;23;20015;-84
2022/06/22 20:36:19;;;;;;;11.07;9.07;;;;;;;;;;6185893;23;19997;-84
2022/06/22 20:38:45;;;;;;;10.20;8.98;;;;;;;;;;6185817;23;20008;-84
